Terminal Aerodrome Forecast
Issued by NWS

Home | Current Version | Previous Version | Graphics & Text | Print | Product List | Glossary On
Versions: 1 2 3 4 5 6 7 8 9 10 11 12 13 14 15 16 17 18 19 20
281
FTUS43 KABR 202320
TAFMBG
TAF
KMBG 202320Z 2100/2124 34009KT P6SM BKN060
     FM210200 02006KT P6SM SCT070
     FM210600 08005KT P6SM FEW070
     FM211700 14008KT P6SM SCT100=

USA.gov is the U.S. government's official web portal to all federal, state and local government web resources and services.